sensor_id;sensor_type;location;lat;lon;timestamp;temperature;humidity
4896;DHT22;2463;49.948;8.472;2023-11-19T00:01:33;9.20;99.90
4896;DHT22;2463;49.948;8.472;2023-11-19T00:04:00;9.20;99.90
4896;DHT22;2463;49.948;8.472;2023-11-19T00:06:26;9.20;99.90
4896;DHT22;2463;49.948;8.472;2023-11-19T00:08:54;9.20;99.90
4896;DHT22;2463;49.948;8.472;2023-11-19T00:11:21;9.20;99.90
4896;DHT22;2463;49.948;8.472;2023-11-19T00:13:47;9.20;99.90
4896;DHT22;2463;49.948;8.472;2023-11-19T00:16:14;9.20;99.90
4896;DHT22;2463;49.948;8.472;2023-11-19T00:18:43;9.20;99.90
4896;DHT22;2463;49.948;8.472;2023-11-19T00:21:09;9.20;99.90
4896;DHT22;2463;49.948;8.472;2023-11-19T00:23:37;9.20;99.90
4896;DHT22;2463;49.948;8.472;2023-11-19T00:26:04;9.20;99.90
4896;DHT22;2463;49.948;8.472;2023-11-19T00:28:33;9.30;99.90
4896;DHT22;2463;49.948;8.472;2023-11-19T00:31:00;9.30;99.90
4896;DHT22;2463;49.948;8.472;2023-11-19T00:33:27;9.30;99.90
4896;DHT22;2463;49.948;8.472;2023-11-19T00:35:53;9.30;99.90
4896;DHT22;2463;49.948;8.472;2023-11-19T00:38:20;9.30;99.90
4896;DHT22;2463;49.948;8.472;2023-11-19T00:40:54;9.30;99.90
4896;DHT22;2463;49.948;8.472;2023-11-19T00:43:20;9.30;99.90
4896;DHT22;2463;49.948;8.472;2023-11-19T00:45:48;9.30;99.90
4896;DHT22;2463;49.948;8.472;2023-11-19T00:48:17;9.20;99.90
4896;DHT22;2463;49.948;8.472;2023-11-19T00:50:44;9.20;99.90
4896;DHT22;2463;49.948;8.472;2023-11-19T00:53:11;9.30;99.90
4896;DHT22;2463;49.948;8.472;2023-11-19T00:55:38;9.30;99.90
4896;DHT22;2463;49.948;8.472;2023-11-19T00:58:12;9.30;99.90
4896;DHT22;2463;49.948;8.472;2023-11-19T01:00:39;9.30;99.90
4896;DHT22;2463;49.948;8.472;2023-11-19T01:03:06;9.30;99.90
4896;DHT22;2463;49.948;8.472;2023-11-19T01:05:33;9.30;99.90
4896;DHT22;2463;49.948;8.472;2023-11-19T01:08:00;9.40;99.90
4896;DHT22;2463;49.948;8.472;2023-11-19T01:10:27;9.40;99.90
4896;DHT22;2463;49.948;8.472;2023-11-19T01:12:55;9.30;99.90
4896;DHT22;2463;49.948;8.472;2023-11-19T01:15:22;9.30;99.90
4896;DHT22;2463;49.948;8.472;2023-11-19T01:17:49;9.20;99.90
4896;DHT22;2463;49.948;8.472;2023-11-19T01:20:19;9.30;99.90
4896;DHT22;2463;49.948;8.472;2023-11-19T01:22:47;9.20;99.90
4896;DHT22;2463;49.948;8.472;2023-11-19T01:25:15;9.30;99.90
4896;DHT22;2463;49.948;8.472;2023-11-19T01:27:42;9.30;99.90
4896;DHT22;2463;49.948;8.472;2023-11-19T01:30:09;9.30;99.90
4896;DHT22;2463;49.948;8.472;2023-11-19T01:32:39;9.30;99.90
4896;DHT22;2463;49.948;8.472;2023-11-19T01:35:07;9.30;99.90
4896;DHT22;2463;49.948;8.472;2023-11-19T01:37:34;9.30;99.90
4896;DHT22;2463;49.948;8.472;2023-11-19T01:40:02;9.30;99.90
4896;DHT22;2463;49.948;8.472;2023-11-19T01:42:36;9.30;99.90
4896;DHT22;2463;49.948;8.472;2023-11-19T01:45:04;9.40;99.90
4896;DHT22;2463;49.948;8.472;2023-11-19T01:47:33;9.40;99.90
4896;DHT22;2463;49.948;8.472;2023-11-19T01:50:01;9.40;99.90
4896;DHT22;2463;49.948;8.472;2023-11-19T01:52:34;9.40;99.90
4896;DHT22;2463;49.948;8.472;2023-11-19T01:55:03;9.50;99.90
4896;DHT22;2463;49.948;8.472;2023-11-19T01:57:31;9.50;99.90
4896;DHT22;2463;49.948;8.472;2023-11-19T01:59:58;9.50;99.90
4896;DHT22;2463;49.948;8.472;2023-11-19T02:02:25;9.50;99.90
4896;DHT22;2463;49.948;8.472;2023-11-19T02:04:53;9.50;99.90
4896;DHT22;2463;49.948;8.472;2023-11-19T02:07:20;9.40;99.90
4896;DHT22;2463;49.948;8.472;2023-11-19T02:09:47;9.50;99.90
4896;DHT22;2463;49.948;8.472;2023-11-19T02:12:14;9.50;99.90
4896;DHT22;2463;49.948;8.472;2023-11-19T02:14:41;9.50;99.90
4896;DHT22;2463;49.948;8.472;2023-11-19T02:17:25;9.50;99.90
4896;DHT22;2463;49.948;8.472;2023-11-19T02:19:52;9.60;99.90
4896;DHT22;2463;49.948;8.472;2023-11-19T02:22:19;9.50;99.90
4896;DHT22;2463;49.948;8.472;2023-11-19T02:24:49;9.60;99.90
4896;DHT22;2463;49.948;8.472;2023-11-19T02:27:31;9.50;99.90
4896;DHT22;2463;49.948;8.472;2023-11-19T02:30:00;9.60;99.90
4896;DHT22;2463;49.948;8.472;2023-11-19T02:32:30;9.60;99.90
4896;DHT22;2463;49.948;8.472;2023-11-19T02:34:57;9.70;99.90
4896;DHT22;2463;49.948;8.472;2023-11-19T02:37:34;9.70;99.90
4896;DHT22;2463;49.948;8.472;2023-11-19T02:40:01;9.70;99.90
4896;DHT22;2463;49.948;8.472;2023-11-19T02:42:29;9.70;99.90
4896;DHT22;2463;49.948;8.472;2023-11-19T02:44:56;9.70;99.90
4896;DHT22;2463;49.948;8.472;2023-11-19T02:47:23;9.80;99.90
4896;DHT22;2463;49.948;8.472;2023-11-19T02:49:51;9.90;99.90
4896;DHT22;2463;49.948;8.472;2023-11-19T02:52:19;9.90;99.90
4896;DHT22;2463;49.948;8.472;2023-11-19T02:54:46;9.90;99.90
4896;DHT22;2463;49.948;8.472;2023-11-19T02:57:12;9.90;99.90
4896;DHT22;2463;49.948;8.472;2023-11-19T02:59:48;9.90;99.90
4896;DHT22;2463;49.948;8.472;2023-11-19T03:02:15;10.00;99.90
4896;DHT22;2463;49.948;8.472;2023-11-19T03:04:42;10.10;99.90
4896;DHT22;2463;49.948;8.472;2023-11-19T03:07:10;10.00;99.90
4896;DHT22;2463;49.948;8.472;2023-11-19T03:09:37;10.10;99.90
4896;DHT22;2463;49.948;8.472;2023-11-19T03:12:07;10.10;99.90
4896;DHT22;2463;49.948;8.472;2023-11-19T03:14:34;10.10;99.90
4896;DHT22;2463;49.948;8.472;2023-11-19T03:17:01;10.10;99.90
4896;DHT22;2463;49.948;8.472;2023-11-19T03:19:28;10.10;99.90
4896;DHT22;2463;49.948;8.472;2023-11-19T03:21:54;10.10;99.90
4896;DHT22;2463;49.948;8.472;2023-11-19T03:24:21;10.10;99.90
4896;DHT22;2463;49.948;8.472;2023-11-19T03:26:49;10.10;99.90
4896;DHT22;2463;49.948;8.472;2023-11-19T03:29:16;10.10;99.90
4896;DHT22;2463;49.948;8.472;2023-11-19T03:31:43;10.10;99.90
4896;DHT22;2463;49.948;8.472;2023-11-19T03:34:11;10.10;99.90
4896;DHT22;2463;49.948;8.472;2023-11-19T03:36:37;10.10;99.90
4896;DHT22;2463;49.948;8.472;2023-11-19T03:39:04;10.10;99.90
4896;DHT22;2463;49.948;8.472;2023-11-19T03:41:31;10.20;99.90
4896;DHT22;2463;49.948;8.472;2023-11-19T03:44:07;10.20;99.90
4896;DHT22;2463;49.948;8.472;2023-11-19T03:46:34;10.20;99.90
4896;DHT22;2463;49.948;8.472;2023-11-19T03:49:01;10.20;99.90
4896;DHT22;2463;49.948;8.472;2023-11-19T03:51:30;10.20;99.90
4896;DHT22;2463;49.948;8.472;2023-11-19T03:53:57;10.20;99.90
4896;DHT22;2463;49.948;8.472;2023-11-19T03:56:23;10.20;99.90
4896;DHT22;2463;49.948;8.472;2023-11-19T03:58:50;10.30;99.90
4896;DHT22;2463;49.948;8.472;2023-11-19T04:01:16;10.30;99.90
4896;DHT22;2463;49.948;8.472;2023-11-19T04:03:43;10.30;99.90
4896;DHT22;2463;49.948;8.472;2023-11-19T04:06:13;10.30;99.90
4896;DHT22;2463;49.948;8.472;2023-11-19T04:08:40;10.40;99.90
4896;DHT22;2463;49.948;8.472;2023-11-19T04:11:07;10.50;99.90
4896;DHT22;2463;49.948;8.472;2023-11-19T04:13:35;10.50;99.90
4896;DHT22;2463;49.948;8.472;2023-11-19T04:16:01;10.50;99.90
4896;DHT22;2463;49.948;8.472;2023-11-19T04:18:28;10.60;99.90
4896;DHT22;2463;49.948;8.472;2023-11-19T04:20:55;10.50;99.90
4896;DHT22;2463;49.948;8.472;2023-11-19T04:23:21;10.50;99.90
4896;DHT22;2463;49.948;8.472;2023-11-19T04:25:48;10.50;99.90
4896;DHT22;2463;49.948;8.472;2023-11-19T04:28:15;10.60;99.90
4896;DHT22;2463;49.948;8.472;2023-11-19T04:30:41;10.60;99.90
4896;DHT22;2463;49.948;8.472;2023-11-19T04:33:08;10.50;99.90
4896;DHT22;2463;49.948;8.472;2023-11-19T04:35:35;10.50;99.90
4896;DHT22;2463;49.948;8.472;2023-11-19T04:38:01;10.50;99.90
4896;DHT22;2463;49.948;8.472;2023-11-19T04:40:28;10.60;99.90
4896;DHT22;2463;49.948;8.472;2023-11-19T04:42:55;10.60;99.90
4896;DHT22;2463;49.948;8.472;2023-11-19T04:45:21;10.60;99.90
4896;DHT22;2463;49.948;8.472;2023-11-19T04:47:48;10.60;99.90
4896;DHT22;2463;49.948;8.472;2023-11-19T04:50:15;10.60;99.90
4896;DHT22;2463;49.948;8.472;2023-11-19T04:52:41;10.60;99.90
4896;DHT22;2463;49.948;8.472;2023-11-19T04:55:12;10.60;99.90
4896;DHT22;2463;49.948;8.472;2023-11-19T04:57:40;10.60;99.90
4896;DHT22;2463;49.948;8.472;2023-11-19T05:00:07;10.70;99.90
4896;DHT22;2463;49.948;8.472;2023-11-19T05:02:37;11.10;99.90
4896;DHT22;2463;49.948;8.472;2023-11-19T05:05:04;10.60;99.90
4896;DHT22;2463;49.948;8.472;2023-11-19T05:07:31;10.60;99.90
4896;DHT22;2463;49.948;8.472;2023-11-19T05:09:58;10.70;99.90
4896;DHT22;2463;49.948;8.472;2023-11-19T05:12:25;10.70;99.90
4896;DHT22;2463;49.948;8.472;2023-11-19T05:14:51;10.70;99.90
4896;DHT22;2463;49.948;8.472;2023-11-19T05:17:18;10.70;99.90
4896;DHT22;2463;49.948;8.472;2023-11-19T05:19:45;10.70;99.90
4896;DHT22;2463;49.948;8.472;2023-11-19T05:22:12;10.70;99.90
4896;DHT22;2463;49.948;8.472;2023-11-19T05:24:39;10.60;99.90
4896;DHT22;2463;49.948;8.472;2023-11-19T05:27:07;10.70;99.90
4896;DHT22;2463;49.948;8.472;2023-11-19T05:29:34;10.70;99.90
4896;DHT22;2463;49.948;8.472;2023-11-19T05:32:01;10.70;99.90
4896;DHT22;2463;49.948;8.472;2023-11-19T05:34:27;10.70;99.90
4896;DHT22;2463;49.948;8.472;2023-11-19T05:36:55;10.70;99.90
4896;DHT22;2463;49.948;8.472;2023-11-19T05:39:21;10.80;99.90
4896;DHT22;2463;49.948;8.472;2023-11-19T05:41:48;10.90;99.90
4896;DHT22;2463;49.948;8.472;2023-11-19T05:44:15;10.90;99.90
4896;DHT22;2463;49.948;8.472;2023-11-19T05:46:42;11.00;99.90
4896;DHT22;2463;49.948;8.472;2023-11-19T05:49:11;11.00;99.90
4896;DHT22;2463;49.948;8.472;2023-11-19T05:51:38;11.10;99.90
4896;DHT22;2463;49.948;8.472;2023-11-19T05:54:08;11.10;99.90
4896;DHT22;2463;49.948;8.472;2023-11-19T05:56:36;11.20;99.90
4896;DHT22;2463;49.948;8.472;2023-11-19T05:59:03;11.20;99.90
4896;DHT22;2463;49.948;8.472;2023-11-19T06:01:34;11.30;99.90
4896;DHT22;2463;49.948;8.472;2023-11-19T06:04:01;11.30;99.90
4896;DHT22;2463;49.948;8.472;2023-11-19T06:06:28;11.40;99.90
4896;DHT22;2463;49.948;8.472;2023-11-19T06:08:55;11.40;99.90
4896;DHT22;2463;49.948;8.472;2023-11-19T06:11:22;11.50;99.90
4896;DHT22;2463;49.948;8.472;2023-11-19T06:13:49;11.60;99.90
4896;DHT22;2463;49.948;8.472;2023-11-19T06:16:18;11.60;99.90
4896;DHT22;2463;49.948;8.472;2023-11-19T06:18:45;11.60;99.90
4896;DHT22;2463;49.948;8.472;2023-11-19T06:21:12;11.70;99.90
4896;DHT22;2463;49.948;8.472;2023-11-19T06:23:39;11.60;99.90
4896;DHT22;2463;49.948;8.472;2023-11-19T06:26:05;11.70;99.90
4896;DHT22;2463;49.948;8.472;2023-11-19T06:28:32;11.70;99.90
4896;DHT22;2463;49.948;8.472;2023-11-19T06:30:59;11.70;99.90
4896;DHT22;2463;49.948;8.472;2023-11-19T06:33:25;11.70;99.90
4896;DHT22;2463;49.948;8.472;2023-11-19T06:35:53;11.70;99.90
4896;DHT22;2463;49.948;8.472;2023-11-19T06:38:21;11.70;99.90
4896;DHT22;2463;49.948;8.472;2023-11-19T06:40:47;11.80;99.90
4896;DHT22;2463;49.948;8.472;2023-11-19T06:43:19;11.80;99.90
4896;DHT22;2463;49.948;8.472;2023-11-19T06:45:46;11.90;99.90
4896;DHT22;2463;49.948;8.472;2023-11-19T06:48:12;11.90;99.90
4896;DHT22;2463;49.948;8.472;2023-11-19T06:50:39;12.00;99.90
4896;DHT22;2463;49.948;8.472;2023-11-19T06:53:05;12.00;99.90
4896;DHT22;2463;49.948;8.472;2023-11-19T06:55:36;12.00;99.90
4896;DHT22;2463;49.948;8.472;2023-11-19T06:58:03;12.00;99.90
4896;DHT22;2463;49.948;8.472;2023-11-19T07:00:30;12.00;99.90
4896;DHT22;2463;49.948;8.472;2023-11-19T07:02:59;12.00;99.90
4896;DHT22;2463;49.948;8.472;2023-11-19T07:05:26;11.90;99.90
4896;DHT22;2463;49.948;8.472;2023-11-19T07:07:53;12.00;99.90
4896;DHT22;2463;49.948;8.472;2023-11-19T07:10:21;11.90;99.90
4896;DHT22;2463;49.948;8.472;2023-11-19T07:12:47;11.90;99.90
4896;DHT22;2463;49.948;8.472;2023-11-19T07:15:16;11.80;99.90
4896;DHT22;2463;49.948;8.472;2023-11-19T07:17:44;11.80;99.90
4896;DHT22;2463;49.948;8.472;2023-11-19T07:20:12;11.80;99.90
4896;DHT22;2463;49.948;8.472;2023-11-19T07:22:44;11.90;99.90
4896;DHT22;2463;49.948;8.472;2023-11-19T07:25:15;12.00;99.90
4896;DHT22;2463;49.948;8.472;2023-11-19T07:27:41;12.00;99.90
4896;DHT22;2463;49.948;8.472;2023-11-19T07:30:09;12.00;99.90
4896;DHT22;2463;49.948;8.472;2023-11-19T07:32:36;12.00;99.90
4896;DHT22;2463;49.948;8.472;2023-11-19T07:35:05;12.10;99.90
4896;DHT22;2463;49.948;8.472;2023-11-19T07:37:32;12.00;99.90
4896;DHT22;2463;49.948;8.472;2023-11-19T07:39:59;12.00;99.90
4896;DHT22;2463;49.948;8.472;2023-11-19T07:42:25;12.00;99.90
4896;DHT22;2463;49.948;8.472;2023-11-19T07:44:52;11.90;99.90
4896;DHT22;2463;49.948;8.472;2023-11-19T07:47:20;11.90;99.90
4896;DHT22;2463;49.948;8.472;2023-11-19T07:49:50;11.90;99.90
4896;DHT22;2463;49.948;8.472;2023-11-19T07:52:17;11.90;99.90
4896;DHT22;2463;49.948;8.472;2023-11-19T07:54:46;11.90;99.90
4896;DHT22;2463;49.948;8.472;2023-11-19T07:57:13;12.00;99.90
4896;DHT22;2463;49.948;8.472;2023-11-19T07:59:40;12.00;99.90
4896;DHT22;2463;49.948;8.472;2023-11-19T08:02:06;12.10;99.90
4896;DHT22;2463;49.948;8.472;2023-11-19T08:04:33;12.20;99.90
4896;DHT22;2463;49.948;8.472;2023-11-19T08:07:00;12.20;99.90
4896;DHT22;2463;49.948;8.472;2023-11-19T08:09:26;12.30;99.90
4896;DHT22;2463;49.948;8.472;2023-11-19T08:11:54;12.30;99.90
4896;DHT22;2463;49.948;8.472;2023-11-19T08:14:22;12.40;99.90
4896;DHT22;2463;49.948;8.472;2023-11-19T08:16:49;12.40;99.90
4896;DHT22;2463;49.948;8.472;2023-11-19T08:19:16;12.40;99.90
4896;DHT22;2463;49.948;8.472;2023-11-19T08:21:43;12.50;99.90
4896;DHT22;2463;49.948;8.472;2023-11-19T08:24:09;12.70;99.90
4896;DHT22;2463;49.948;8.472;2023-11-19T08:26:36;12.80;99.90
4896;DHT22;2463;49.948;8.472;2023-11-19T08:29:03;13.10;99.90
4896;DHT22;2463;49.948;8.472;2023-11-19T08:31:29;13.30;99.90
4896;DHT22;2463;49.948;8.472;2023-11-19T08:33:56;13.50;99.90
4896;DHT22;2463;49.948;8.472;2023-11-19T08:36:23;14.00;99.90
4896;DHT22;2463;49.948;8.472;2023-11-19T08:38:49;14.90;99.90
4896;DHT22;2463;49.948;8.472;2023-11-19T08:41:18;15.80;99.90
4896;DHT22;2463;49.948;8.472;2023-11-19T08:43:45;15.80;99.90
4896;DHT22;2463;49.948;8.472;2023-11-19T08:46:12;15.60;99.90
4896;DHT22;2463;49.948;8.472;2023-11-19T08:48:39;15.20;99.90
4896;DHT22;2463;49.948;8.472;2023-11-19T08:51:06;15.00;99.90
4896;DHT22;2463;49.948;8.472;2023-11-19T08:53:33;14.70;99.90
4896;DHT22;2463;49.948;8.472;2023-11-19T08:56:00;14.50;99.90
4896;DHT22;2463;49.948;8.472;2023-11-19T08:58:29;14.30;99.90
4896;DHT22;2463;49.948;8.472;2023-11-19T09:00:57;14.20;99.90
4896;DHT22;2463;49.948;8.472;2023-11-19T09:03:24;14.00;99.90
4896;DHT22;2463;49.948;8.472;2023-11-19T09:05:53;14.00;99.90
4896;DHT22;2463;49.948;8.472;2023-11-19T09:08:20;13.90;99.90
4896;DHT22;2463;49.948;8.472;2023-11-19T09:10:46;13.90;99.90
4896;DHT22;2463;49.948;8.472;2023-11-19T09:13:13;13.90;99.90
4896;DHT22;2463;49.948;8.472;2023-11-19T09:15:40;13.90;99.90
4896;DHT22;2463;49.948;8.472;2023-11-19T09:18:06;14.60;99.90
4896;DHT22;2463;49.948;8.472;2023-11-19T09:20:33;17.20;99.90
4896;DHT22;2463;49.948;8.472;2023-11-19T09:23:05;20.20;99.90
4896;DHT22;2463;49.948;8.472;2023-11-19T09:25:32;22.80;99.90
4896;DHT22;2463;49.948;8.472;2023-11-19T09:28:02;25.10;99.90
4896;DHT22;2463;49.948;8.472;2023-11-19T09:30:29;27.10;99.90
4896;DHT22;2463;49.948;8.472;2023-11-19T09:32:55;28.60;99.90
4896;DHT22;2463;49.948;8.472;2023-11-19T09:35:22;29.70;99.90
4896;DHT22;2463;49.948;8.472;2023-11-19T09:37:49;30.50;99.90
4896;DHT22;2463;49.948;8.472;2023-11-19T09:40:16;31.40;99.70
4896;DHT22;2463;49.948;8.472;2023-11-19T09:42:45;32.50;98.50
4896;DHT22;2463;49.948;8.472;2023-11-19T09:45:16;33.70;96.00
4896;DHT22;2463;49.948;8.472;2023-11-19T09:47:44;33.80;93.70
4896;DHT22;2463;49.948;8.472;2023-11-19T09:50:19;33.90;91.30
4896;DHT22;2463;49.948;8.472;2023-11-19T09:52:47;33.30;90.30
4896;DHT22;2463;49.948;8.472;2023-11-19T09:55:14;33.60;90.20
4896;DHT22;2463;49.948;8.472;2023-11-19T09:57:41;33.50;87.50
4896;DHT22;2463;49.948;8.472;2023-11-19T10:00:08;33.30;89.50
4896;DHT22;2463;49.948;8.472;2023-11-19T10:02:37;33.40;87.00
4896;DHT22;2463;49.948;8.472;2023-11-19T10:05:09;33.10;83.80
4896;DHT22;2463;49.948;8.472;2023-11-19T10:07:36;32.50;83.70
4896;DHT22;2463;49.948;8.472;2023-11-19T10:10:04;31.60;84.60
4896;DHT22;2463;49.948;8.472;2023-11-19T10:12:31;31.60;85.80
4896;DHT22;2463;49.948;8.472;2023-11-19T10:14:58;31.50;85.70
4896;DHT22;2463;49.948;8.472;2023-11-19T10:17:29;31.50;85.70
4896;DHT22;2463;49.948;8.472;2023-11-19T10:19:59;32.10;88.00
4896;DHT22;2463;49.948;8.472;2023-11-19T10:22:27;32.50;84.10
4896;DHT22;2463;49.948;8.472;2023-11-19T10:24:54;32.90;83.50
4896;DHT22;2463;49.948;8.472;2023-11-19T10:27:24;32.90;80.90
4896;DHT22;2463;49.948;8.472;2023-11-19T10:29:52;32.30;82.30
4896;DHT22;2463;49.948;8.472;2023-11-19T10:32:18;31.30;83.80
4896;DHT22;2463;49.948;8.472;2023-11-19T10:35:03;30.50;83.70
4896;DHT22;2463;49.948;8.472;2023-11-19T10:37:31;30.10;85.30
4896;DHT22;2463;49.948;8.472;2023-11-19T10:40:04;28.40;85.50
4896;DHT22;2463;49.948;8.472;2023-11-19T10:42:32;26.30;90.10
4896;DHT22;2463;49.948;8.472;2023-11-19T10:44:58;25.30;92.00
4896;DHT22;2463;49.948;8.472;2023-11-19T10:47:25;24.40;93.60
4896;DHT22;2463;49.948;8.472;2023-11-19T10:49:55;24.30;94.30
4896;DHT22;2463;49.948;8.472;2023-11-19T10:52:22;25.80;94.30
4896;DHT22;2463;49.948;8.472;2023-11-19T10:54:50;27.20;93.90
4896;DHT22;2463;49.948;8.472;2023-11-19T10:57:21;28.30;93.10
4896;DHT22;2463;49.948;8.472;2023-11-19T10:59:52;28.70;90.60
4896;DHT22;2463;49.948;8.472;2023-11-19T11:02:24;27.80;91.10
4896;DHT22;2463;49.948;8.472;2023-11-19T11:04:53;26.60;91.50
4896;DHT22;2463;49.948;8.472;2023-11-19T11:07:21;26.10;92.90
4896;DHT22;2463;49.948;8.472;2023-11-19T11:10:06;25.00;93.70
4896;DHT22;2463;49.948;8.472;2023-11-19T11:12:36;24.10;94.90
4896;DHT22;2463;49.948;8.472;2023-11-19T11:15:04;23.20;96.20
4896;DHT22;2463;49.948;8.472;2023-11-19T11:17:33;22.40;97.20
4896;DHT22;2463;49.948;8.472;2023-11-19T11:20:01;21.70;98.90
4896;DHT22;2463;49.948;8.472;2023-11-19T11:22:34;21.50;99.90
4896;DHT22;2463;49.948;8.472;2023-11-19T11:36:32;21.70;99.90
4896;DHT22;2463;49.948;8.472;2023-11-19T11:39:05;21.40;99.90
4896;DHT22;2463;49.948;8.472;2023-11-19T11:41:34;21.30;99.90
4896;DHT22;2463;49.948;8.472;2023-11-19T11:44:01;21.20;99.90
4896;DHT22;2463;49.948;8.472;2023-11-19T11:57:06;19.30;99.90
4896;DHT22;2463;49.948;8.472;2023-11-19T11:59:43;18.90;99.90
4896;DHT22;2463;49.948;8.472;2023-11-19T12:02:11;18.70;99.90
4896;DHT22;2463;49.948;8.472;2023-11-19T12:04:40;19.60;99.90
4896;DHT22;2463;49.948;8.472;2023-11-19T12:09:41;22.90;99.90
4896;DHT22;2463;49.948;8.472;2023-11-19T12:17:43;25.10;98.70
4896;DHT22;2463;49.948;8.472;2023-11-19T12:20:13;25.30;96.20
4896;DHT22;2463;49.948;8.472;2023-11-19T12:22:41;25.50;95.00
4896;DHT22;2463;49.948;8.472;2023-11-19T12:25:09;25.50;96.10
4896;DHT22;2463;49.948;8.472;2023-11-19T12:27:41;25.20;94.70
4896;DHT22;2463;49.948;8.472;2023-11-19T12:30:08;25.30;95.20
4896;DHT22;2463;49.948;8.472;2023-11-19T12:32:41;25.20;94.70
4896;DHT22;2463;49.948;8.472;2023-11-19T12:35:09;25.00;93.50
4896;DHT22;2463;49.948;8.472;2023-11-19T12:37:46;25.20;94.10
4896;DHT22;2463;49.948;8.472;2023-11-19T12:40:17;25.30;93.70
4896;DHT22;2463;49.948;8.472;2023-11-19T12:42:45;25.70;93.90
4896;DHT22;2463;49.948;8.472;2023-11-19T12:45:13;26.20;93.10
4896;DHT22;2463;49.948;8.472;2023-11-19T12:47:40;26.60;92.50
4896;DHT22;2463;49.948;8.472;2023-11-19T12:50:08;26.90;91.70
4896;DHT22;2463;49.948;8.472;2023-11-19T12:52:36;27.40;92.70
4896;DHT22;2463;49.948;8.472;2023-11-19T12:55:04;27.80;92.30
4896;DHT22;2463;49.948;8.472;2023-11-19T12:57:40;28.30;90.80
4896;DHT22;2463;49.948;8.472;2023-11-19T13:00:08;28.40;89.20
4896;DHT22;2463;49.948;8.472;2023-11-19T13:02:48;28.10;86.30
4896;DHT22;2463;49.948;8.472;2023-11-19T13:05:33;27.30;85.80
4896;DHT22;2463;49.948;8.472;2023-11-19T13:08:04;27.10;87.50
4896;DHT22;2463;49.948;8.472;2023-11-19T13:10:32;27.00;86.40
4896;DHT22;2463;49.948;8.472;2023-11-19T13:13:07;26.60;86.50
4896;DHT22;2463;49.948;8.472;2023-11-19T13:15:35;25.90;87.60
4896;DHT22;2463;49.948;8.472;2023-11-19T13:18:02;25.50;87.30
4896;DHT22;2463;49.948;8.472;2023-11-19T13:20:29;25.40;89.00
4896;DHT22;2463;49.948;8.472;2023-11-19T13:22:57;25.30;87.60
4896;DHT22;2463;49.948;8.472;2023-11-19T13:25:25;24.90;89.70
4896;DHT22;2463;49.948;8.472;2023-11-19T13:27:52;24.60;88.40
4896;DHT22;2463;49.948;8.472;2023-11-19T13:30:19;24.20;89.60
4896;DHT22;2463;49.948;8.472;2023-11-19T13:32:49;23.90;90.50
4896;DHT22;2463;49.948;8.472;2023-11-19T13:35:17;23.90;91.00
4896;DHT22;2463;49.948;8.472;2023-11-19T13:37:44;24.00;90.60
4896;DHT22;2463;49.948;8.472;2023-11-19T13:40:11;24.00;91.50
4896;DHT22;2463;49.948;8.472;2023-11-19T13:42:44;23.50;90.80
4896;DHT22;2463;49.948;8.472;2023-11-19T13:45:14;22.80;91.40
4896;DHT22;2463;49.948;8.472;2023-11-19T13:47:43;21.80;92.30
4896;DHT22;2463;49.948;8.472;2023-11-19T13:50:15;21.10;93.50
4896;DHT22;2463;49.948;8.472;2023-11-19T13:52:43;20.60;93.40
4896;DHT22;2463;49.948;8.472;2023-11-19T13:55:12;20.40;94.00
4896;DHT22;2463;49.948;8.472;2023-11-19T13:57:39;20.10;94.60
4896;DHT22;2463;49.948;8.472;2023-11-19T14:00:08;19.50;95.50
4896;DHT22;2463;49.948;8.472;2023-11-19T14:02:43;19.00;96.10
4896;DHT22;2463;49.948;8.472;2023-11-19T14:05:10;18.50;97.10
4896;DHT22;2463;49.948;8.472;2023-11-19T14:07:40;18.10;98.10
4896;DHT22;2463;49.948;8.472;2023-11-19T14:10:08;17.70;98.80
4896;DHT22;2463;49.948;8.472;2023-11-19T14:12:37;17.30;99.20
4896;DHT22;2463;49.948;8.472;2023-11-19T14:15:05;17.00;99.90
4896;DHT22;2463;49.948;8.472;2023-11-19T14:17:33;16.70;99.90
4896;DHT22;2463;49.948;8.472;2023-11-19T14:20:01;16.50;99.90
4896;DHT22;2463;49.948;8.472;2023-11-19T14:22:27;16.30;99.90
4896;DHT22;2463;49.948;8.472;2023-11-19T14:24:54;16.20;99.90
4896;DHT22;2463;49.948;8.472;2023-11-19T14:27:21;16.20;99.90
4896;DHT22;2463;49.948;8.472;2023-11-19T14:29:48;16.10;99.90
4896;DHT22;2463;49.948;8.472;2023-11-19T14:32:15;16.10;99.90
4896;DHT22;2463;49.948;8.472;2023-11-19T14:34:42;16.10;99.90
4896;DHT22;2463;49.948;8.472;2023-11-19T14:37:10;16.00;99.90
4896;DHT22;2463;49.948;8.472;2023-11-19T14:39:36;16.00;99.90
4896;DHT22;2463;49.948;8.472;2023-11-19T14:42:03;15.90;99.90
4896;DHT22;2463;49.948;8.472;2023-11-19T14:44:31;15.90;99.90
4896;DHT22;2463;49.948;8.472;2023-11-19T14:46:59;15.80;99.90
4896;DHT22;2463;49.948;8.472;2023-11-19T14:49:25;15.80;99.90
4896;DHT22;2463;49.948;8.472;2023-11-19T14:51:53;15.80;99.90
4896;DHT22;2463;49.948;8.472;2023-11-19T14:54:20;15.80;99.90
4896;DHT22;2463;49.948;8.472;2023-11-19T14:56:46;15.80;99.90
4896;DHT22;2463;49.948;8.472;2023-11-19T14:59:13;15.80;99.90
4896;DHT22;2463;49.948;8.472;2023-11-19T15:01:40;15.70;99.90
4896;DHT22;2463;49.948;8.472;2023-11-19T15:04:07;15.60;99.90
4896;DHT22;2463;49.948;8.472;2023-11-19T15:06:33;15.50;99.90
4896;DHT22;2463;49.948;8.472;2023-11-19T15:09:01;15.40;99.90
4896;DHT22;2463;49.948;8.472;2023-11-19T15:11:27;15.20;99.90
4896;DHT22;2463;49.948;8.472;2023-11-19T15:13:54;15.10;99.90
4896;DHT22;2463;49.948;8.472;2023-11-19T15:16:21;15.00;99.90
4896;DHT22;2463;49.948;8.472;2023-11-19T15:18:58;14.90;99.90
4896;DHT22;2463;49.948;8.472;2023-11-19T15:21:26;14.80;99.90
4896;DHT22;2463;49.948;8.472;2023-11-19T15:23:56;14.80;99.90
4896;DHT22;2463;49.948;8.472;2023-11-19T15:26:23;14.70;99.90
4896;DHT22;2463;49.948;8.472;2023-11-19T15:28:49;14.60;99.90
4896;DHT22;2463;49.948;8.472;2023-11-19T15:31:16;14.60;99.90
4896;DHT22;2463;49.948;8.472;2023-11-19T15:33:43;14.50;99.90
4896;DHT22;2463;49.948;8.472;2023-11-19T15:36:10;14.50;99.90
4896;DHT22;2463;49.948;8.472;2023-11-19T15:38:36;14.40;99.90
4896;DHT22;2463;49.948;8.472;2023-11-19T15:41:06;14.40;99.90
4896;DHT22;2463;49.948;8.472;2023-11-19T15:43:34;14.30;99.90
4896;DHT22;2463;49.948;8.472;2023-11-19T15:46:00;14.20;99.90
4896;DHT22;2463;49.948;8.472;2023-11-19T15:48:27;14.20;99.90
4896;DHT22;2463;49.948;8.472;2023-11-19T15:50:54;14.10;99.90
4896;DHT22;2463;49.948;8.472;2023-11-19T15:53:20;14.00;99.90
4896;DHT22;2463;49.948;8.472;2023-11-19T15:55:47;13.90;99.90
4896;DHT22;2463;49.948;8.472;2023-11-19T15:58:14;13.90;99.90
4896;DHT22;2463;49.948;8.472;2023-11-19T16:00:40;13.80;99.90
4896;DHT22;2463;49.948;8.472;2023-11-19T16:03:13;13.70;99.90
4896;DHT22;2463;49.948;8.472;2023-11-19T16:05:40;13.60;99.90
4896;DHT22;2463;49.948;8.472;2023-11-19T16:08:07;13.50;99.90
4896;DHT22;2463;49.948;8.472;2023-11-19T16:10:37;13.40;99.90
4896;DHT22;2463;49.948;8.472;2023-11-19T16:13:10;13.40;99.90
4896;DHT22;2463;49.948;8.472;2023-11-19T16:15:37;13.40;99.90
4896;DHT22;2463;49.948;8.472;2023-11-19T16:18:03;13.30;99.90
4896;DHT22;2463;49.948;8.472;2023-11-19T16:20:30;13.30;99.90
4896;DHT22;2463;49.948;8.472;2023-11-19T16:23:01;13.30;99.90
4896;DHT22;2463;49.948;8.472;2023-11-19T16:25:28;13.20;99.90
4896;DHT22;2463;49.948;8.472;2023-11-19T16:27:54;13.20;99.90
4896;DHT22;2463;49.948;8.472;2023-11-19T16:30:22;13.10;99.90
4896;DHT22;2463;49.948;8.472;2023-11-19T16:32:55;13.10;99.90
4896;DHT22;2463;49.948;8.472;2023-11-19T16:35:22;13.00;99.90
4896;DHT22;2463;49.948;8.472;2023-11-19T16:37:49;12.90;99.90
4896;DHT22;2463;49.948;8.472;2023-11-19T16:40:17;12.90;99.90